sensor_id;sensor_type;location;lat;lon;timestamp;temperature;humidity
6792;DHT22;3433;48.730;9.108;2023-05-29T00:02:00;16.30;79.40
6792;DHT22;3433;48.730;9.108;2023-05-29T00:04:47;16.30;79.30
6792;DHT22;3433;48.730;9.108;2023-05-29T00:07:34;16.30;79.30
6792;DHT22;3433;48.730;9.108;2023-05-29T00:10:21;16.30;79.80
6792;DHT22;3433;48.730;9.108;2023-05-29T00:13:09;16.30;79.50
6792;DHT22;3433;48.730;9.108;2023-05-29T00:15:56;16.20;79.80
6792;DHT22;3433;48.730;9.108;2023-05-29T00:18:44;16.20;79.80
6792;DHT22;3433;48.730;9.108;2023-05-29T00:21:32;16.10;79.70
6792;DHT22;3433;48.730;9.108;2023-05-29T00:24:20;16.10;79.30
6792;DHT22;3433;48.730;9.108;2023-05-29T00:27:07;16.10;79.60
6792;DHT22;3433;48.730;9.108;2023-05-29T00:29:55;16.10;80.50
6792;DHT22;3433;48.730;9.108;2023-05-29T00:32:42;16.10;79.70
6792;DHT22;3433;48.730;9.108;2023-05-29T00:35:31;16.10;80.10
6792;DHT22;3433;48.730;9.108;2023-05-29T00:38:18;16.10;80.20
6792;DHT22;3433;48.730;9.108;2023-05-29T00:41:05;16.10;80.20
6792;DHT22;3433;48.730;9.108;2023-05-29T00:43:53;16.10;80.50
6792;DHT22;3433;48.730;9.108;2023-05-29T00:46:40;16.10;80.20
6792;DHT22;3433;48.730;9.108;2023-05-29T00:49:27;16.10;80.40
6792;DHT22;3433;48.730;9.108;2023-05-29T00:52:16;16.20;79.90
6792;DHT22;3433;48.730;9.108;2023-05-29T00:55:05;16.10;79.60
6792;DHT22;3433;48.730;9.108;2023-05-29T00:57:52;16.10;79.70
6792;DHT22;3433;48.730;9.108;2023-05-29T01:00:40;16.10;79.80
6792;DHT22;3433;48.730;9.108;2023-05-29T01:03:28;16.00;80.00
6792;DHT22;3433;48.730;9.108;2023-05-29T01:06:17;16.00;80.90
6792;DHT22;3433;48.730;9.108;2023-05-29T01:09:06;15.90;80.30
6792;DHT22;3433;48.730;9.108;2023-05-29T01:12:05;15.90;80.40
6792;DHT22;3433;48.730;9.108;2023-05-29T01:15:04;15.90;80.70
6792;DHT22;3433;48.730;9.108;2023-05-29T01:18:07;15.80;80.50
6792;DHT22;3433;48.730;9.108;2023-05-29T01:21:02;15.80;80.40
6792;DHT22;3433;48.730;9.108;2023-05-29T01:24:02;15.70;80.60
6792;DHT22;3433;48.730;9.108;2023-05-29T01:26:55;15.70;81.40
6792;DHT22;3433;48.730;9.108;2023-05-29T01:29:46;15.60;80.70
6792;DHT22;3433;48.730;9.108;2023-05-29T01:32:34;15.50;80.90
6792;DHT22;3433;48.730;9.108;2023-05-29T01:35:21;15.60;81.60
6792;DHT22;3433;48.730;9.108;2023-05-29T01:38:09;15.50;81.50
6792;DHT22;3433;48.730;9.108;2023-05-29T01:40:56;15.50;81.30
6792;DHT22;3433;48.730;9.108;2023-05-29T01:43:46;15.40;81.40
6792;DHT22;3433;48.730;9.108;2023-05-29T01:46:35;15.40;81.60
6792;DHT22;3433;48.730;9.108;2023-05-29T01:49:23;15.30;81.30
6792;DHT22;3433;48.730;9.108;2023-05-29T01:52:11;15.30;82.00
6792;DHT22;3433;48.730;9.108;2023-05-29T01:54:58;15.30;81.70
6792;DHT22;3433;48.730;9.108;2023-05-29T01:57:46;15.20;81.50
6792;DHT22;3433;48.730;9.108;2023-05-29T02:00:35;15.20;81.60
6792;DHT22;3433;48.730;9.108;2023-05-29T02:03:22;15.20;81.70
6792;DHT22;3433;48.730;9.108;2023-05-29T02:06:10;15.10;81.90
6792;DHT22;3433;48.730;9.108;2023-05-29T02:08:57;15.10;82.10
6792;DHT22;3433;48.730;9.108;2023-05-29T02:11:44;15.10;82.20
6792;DHT22;3433;48.730;9.108;2023-05-29T02:14:32;15.00;81.80
6792;DHT22;3433;48.730;9.108;2023-05-29T02:17:20;15.00;81.90
6792;DHT22;3433;48.730;9.108;2023-05-29T02:20:08;15.00;82.10
6792;DHT22;3433;48.730;9.108;2023-05-29T02:22:56;15.00;81.70
6792;DHT22;3433;48.730;9.108;2023-05-29T02:25:44;15.00;81.90
6792;DHT22;3433;48.730;9.108;2023-05-29T02:28:31;15.00;82.30
6792;DHT22;3433;48.730;9.108;2023-05-29T02:31:18;15.00;82.40
6792;DHT22;3433;48.730;9.108;2023-05-29T02:34:07;14.90;82.20
6792;DHT22;3433;48.730;9.108;2023-05-29T02:36:54;15.00;82.40
6792;DHT22;3433;48.730;9.108;2023-05-29T02:39:41;15.00;82.60
6792;DHT22;3433;48.730;9.108;2023-05-29T02:42:28;14.90;82.60
6792;DHT22;3433;48.730;9.108;2023-05-29T02:45:15;14.90;82.70
6792;DHT22;3433;48.730;9.108;2023-05-29T02:48:03;14.80;82.80
6792;DHT22;3433;48.730;9.108;2023-05-29T02:50:52;14.80;82.40
6792;DHT22;3433;48.730;9.108;2023-05-29T02:53:39;14.80;82.20
6792;DHT22;3433;48.730;9.108;2023-05-29T02:56:26;14.80;82.80
6792;DHT22;3433;48.730;9.108;2023-05-29T02:59:14;14.80;82.50
6792;DHT22;3433;48.730;9.108;2023-05-29T03:02:01;14.70;82.70
6792;DHT22;3433;48.730;9.108;2023-05-29T03:04:48;14.70;83.20
6792;DHT22;3433;48.730;9.108;2023-05-29T03:07:37;14.60;83.20
6792;DHT22;3433;48.730;9.108;2023-05-29T03:10:24;14.60;83.30
6792;DHT22;3433;48.730;9.108;2023-05-29T03:13:11;14.50;83.30
6792;DHT22;3433;48.730;9.108;2023-05-29T03:15:59;14.50;83.60
6792;DHT22;3433;48.730;9.108;2023-05-29T03:18:46;14.40;83.40
6792;DHT22;3433;48.730;9.108;2023-05-29T03:21:33;14.40;83.50
6792;DHT22;3433;48.730;9.108;2023-05-29T03:24:23;14.40;84.00
6792;DHT22;3433;48.730;9.108;2023-05-29T03:27:10;14.40;84.10
6792;DHT22;3433;48.730;9.108;2023-05-29T03:29:58;14.30;84.10
6792;DHT22;3433;48.730;9.108;2023-05-29T03:32:46;14.30;84.10
6792;DHT22;3433;48.730;9.108;2023-05-29T03:35:33;14.30;84.20
6792;DHT22;3433;48.730;9.108;2023-05-29T03:38:20;14.30;84.20
6792;DHT22;3433;48.730;9.108;2023-05-29T03:41:09;14.20;84.10
6792;DHT22;3433;48.730;9.108;2023-05-29T03:43:56;14.20;84.20
6792;DHT22;3433;48.730;9.108;2023-05-29T03:46:43;14.20;84.20
6792;DHT22;3433;48.730;9.108;2023-05-29T03:49:31;14.20;84.80
6792;DHT22;3433;48.730;9.108;2023-05-29T03:52:18;14.10;84.80
6792;DHT22;3433;48.730;9.108;2023-05-29T03:55:09;14.10;84.70
6792;DHT22;3433;48.730;9.108;2023-05-29T03:58:00;14.10;84.90
6792;DHT22;3433;48.730;9.108;2023-05-29T04:00:47;14.10;85.10
6792;DHT22;3433;48.730;9.108;2023-05-29T04:03:34;14.20;85.40
6792;DHT22;3433;48.730;9.108;2023-05-29T04:06:22;14.10;85.30
6792;DHT22;3433;48.730;9.108;2023-05-29T04:09:09;14.20;85.50
6792;DHT22;3433;48.730;9.108;2023-05-29T04:11:56;14.20;85.80
6792;DHT22;3433;48.730;9.108;2023-05-29T04:14:45;14.20;85.90
6792;DHT22;3433;48.730;9.108;2023-05-29T04:17:32;14.20;85.80
6792;DHT22;3433;48.730;9.108;2023-05-29T04:20:19;14.30;86.50
6792;DHT22;3433;48.730;9.108;2023-05-29T04:23:07;14.30;86.10
6792;DHT22;3433;48.730;9.108;2023-05-29T04:25:54;14.20;86.20
6792;DHT22;3433;48.730;9.108;2023-05-29T04:28:41;14.20;86.30
6792;DHT22;3433;48.730;9.108;2023-05-29T04:31:31;14.30;86.40
6792;DHT22;3433;48.730;9.108;2023-05-29T04:34:18;14.30;86.50
6792;DHT22;3433;48.730;9.108;2023-05-29T04:37:06;14.30;86.60
6792;DHT22;3433;48.730;9.108;2023-05-29T04:39:53;14.40;87.10
6792;DHT22;3433;48.730;9.108;2023-05-29T04:42:40;14.40;86.80
6792;DHT22;3433;48.730;9.108;2023-05-29T04:45:27;14.50;88.40
6792;DHT22;3433;48.730;9.108;2023-05-29T04:48:16;14.60;87.30
6792;DHT22;3433;48.730;9.108;2023-05-29T04:51:03;14.60;87.90
6792;DHT22;3433;48.730;9.108;2023-05-29T04:53:51;14.70;87.20
6792;DHT22;3433;48.730;9.108;2023-05-29T04:56:38;14.70;88.80
6792;DHT22;3433;48.730;9.108;2023-05-29T04:59:26;14.90;88.50
6792;DHT22;3433;48.730;9.108;2023-05-29T05:02:13;15.00;87.90
6792;DHT22;3433;48.730;9.108;2023-05-29T05:05:02;15.10;87.80
6792;DHT22;3433;48.730;9.108;2023-05-29T05:07:49;15.20;87.90
6792;DHT22;3433;48.730;9.108;2023-05-29T05:10:37;15.40;88.00
6792;DHT22;3433;48.730;9.108;2023-05-29T05:13:24;15.40;88.00
6792;DHT22;3433;48.730;9.108;2023-05-29T05:16:11;15.60;88.10
6792;DHT22;3433;48.730;9.108;2023-05-29T05:18:58;15.70;87.60
6792;DHT22;3433;48.730;9.108;2023-05-29T05:21:47;15.90;88.10
6792;DHT22;3433;48.730;9.108;2023-05-29T05:24:34;16.00;88.00
6792;DHT22;3433;48.730;9.108;2023-05-29T05:27:21;16.20;88.10
6792;DHT22;3433;48.730;9.108;2023-05-29T05:30:09;16.30;88.50
6792;DHT22;3433;48.730;9.108;2023-05-29T05:32:57;16.50;88.50
6792;DHT22;3433;48.730;9.108;2023-05-29T05:35:44;16.70;88.40
6792;DHT22;3433;48.730;9.108;2023-05-29T05:38:33;16.80;88.20
6792;DHT22;3433;48.730;9.108;2023-05-29T05:41:20;17.00;88.60
6792;DHT22;3433;48.730;9.108;2023-05-29T05:44:08;17.30;89.30
6792;DHT22;3433;48.730;9.108;2023-05-29T05:46:55;17.40;88.80
6792;DHT22;3433;48.730;9.108;2023-05-29T05:49:42;17.50;88.80
6792;DHT22;3433;48.730;9.108;2023-05-29T05:52:30;17.70;89.10
6792;DHT22;3433;48.730;9.108;2023-05-29T05:55:19;18.00;88.60
6792;DHT22;3433;48.730;9.108;2023-05-29T05:58:07;18.20;88.70
6792;DHT22;3433;48.730;9.108;2023-05-29T06:00:54;18.30;89.20
6792;DHT22;3433;48.730;9.108;2023-05-29T06:03:43;18.50;89.20
6792;DHT22;3433;48.730;9.108;2023-05-29T06:06:30;18.80;88.00
6792;DHT22;3433;48.730;9.108;2023-05-29T06:09:17;18.90;87.60
6792;DHT22;3433;48.730;9.108;2023-05-29T06:12:07;19.10;87.70
6792;DHT22;3433;48.730;9.108;2023-05-29T06:14:55;19.20;86.30
6792;DHT22;3433;48.730;9.108;2023-05-29T06:17:42;19.30;86.70
6792;DHT22;3433;48.730;9.108;2023-05-29T06:20:30;19.30;86.30
6792;DHT22;3433;48.730;9.108;2023-05-29T06:23:17;19.40;86.40
6792;DHT22;3433;48.730;9.108;2023-05-29T06:26:05;19.50;86.60
6792;DHT22;3433;48.730;9.108;2023-05-29T06:28:53;19.60;87.30
6792;DHT22;3433;48.730;9.108;2023-05-29T06:31:41;19.60;87.40
6792;DHT22;3433;48.730;9.108;2023-05-29T06:34:28;19.70;87.00
6792;DHT22;3433;48.730;9.108;2023-05-29T06:37:15;19.70;86.70
6792;DHT22;3433;48.730;9.108;2023-05-29T06:40:03;19.80;86.50
6792;DHT22;3433;48.730;9.108;2023-05-29T06:42:51;19.90;87.20
6792;DHT22;3433;48.730;9.108;2023-05-29T06:45:40;20.10;87.30
6792;DHT22;3433;48.730;9.108;2023-05-29T06:48:27;20.10;86.60
6792;DHT22;3433;48.730;9.108;2023-05-29T06:51:15;20.00;86.70
6792;DHT22;3433;48.730;9.108;2023-05-29T06:54:03;20.20;87.10
6792;DHT22;3433;48.730;9.108;2023-05-29T06:56:50;20.40;87.90
6792;DHT22;3433;48.730;9.108;2023-05-29T06:59:38;20.60;87.40
6792;DHT22;3433;48.730;9.108;2023-05-29T07:02:26;20.70;86.40
6792;DHT22;3433;48.730;9.108;2023-05-29T07:05:14;20.80;86.30
6792;DHT22;3433;48.730;9.108;2023-05-29T07:08:01;20.70;85.50
6792;DHT22;3433;48.730;9.108;2023-05-29T07:10:48;20.80;86.10
6792;DHT22;3433;48.730;9.108;2023-05-29T07:13:35;21.00;86.90
6792;DHT22;3433;48.730;9.108;2023-05-29T07:16:23;21.20;86.00
6792;DHT22;3433;48.730;9.108;2023-05-29T07:19:11;21.20;84.70
6792;DHT22;3433;48.730;9.108;2023-05-29T07:22:00;21.40;84.90
6792;DHT22;3433;48.730;9.108;2023-05-29T07:24:47;21.60;86.20
6792;DHT22;3433;48.730;9.108;2023-05-29T07:27:34;21.70;84.10
6792;DHT22;3433;48.730;9.108;2023-05-29T07:30:21;21.70;84.70
6792;DHT22;3433;48.730;9.108;2023-05-29T07:33:08;21.70;85.00
6792;DHT22;3433;48.730;9.108;2023-05-29T07:35:57;21.80;84.60
6792;DHT22;3433;48.730;9.108;2023-05-29T07:38:45;21.90;85.60
6792;DHT22;3433;48.730;9.108;2023-05-29T07:41:32;22.10;84.30
6792;DHT22;3433;48.730;9.108;2023-05-29T07:44:19;22.30;85.10
6792;DHT22;3433;48.730;9.108;2023-05-29T07:47:07;22.10;83.70
6792;DHT22;3433;48.730;9.108;2023-05-29T07:49:54;22.40;84.70
6792;DHT22;3433;48.730;9.108;2023-05-29T07:52:43;22.40;84.60
6792;DHT22;3433;48.730;9.108;2023-05-29T07:55:31;22.40;84.30
6792;DHT22;3433;48.730;9.108;2023-05-29T07:58:18;22.50;84.90
6792;DHT22;3433;48.730;9.108;2023-05-29T08:01:06;22.60;85.20
6792;DHT22;3433;48.730;9.108;2023-05-29T08:03:53;22.80;84.50
6792;DHT22;3433;48.730;9.108;2023-05-29T08:06:40;22.90;84.60
6792;DHT22;3433;48.730;9.108;2023-05-29T08:09:30;22.70;84.80
6792;DHT22;3433;48.730;9.108;2023-05-29T08:12:17;22.90;83.90
6792;DHT22;3433;48.730;9.108;2023-05-29T08:15:05;22.60;83.60
6792;DHT22;3433;48.730;9.108;2023-05-29T08:17:53;22.70;84.10
6792;DHT22;3433;48.730;9.108;2023-05-29T08:20:40;22.60;85.20
6792;DHT22;3433;48.730;9.108;2023-05-29T08:23:28;22.80;85.00
6792;DHT22;3433;48.730;9.108;2023-05-29T08:26:18;23.10;84.20
6792;DHT22;3433;48.730;9.108;2023-05-29T08:29:06;23.00;82.50
6792;DHT22;3433;48.730;9.108;2023-05-29T08:31:53;22.90;81.20
6792;DHT22;3433;48.730;9.108;2023-05-29T08:34:40;23.00;82.30
6792;DHT22;3433;48.730;9.108;2023-05-29T08:37:30;22.70;80.80
6792;DHT22;3433;48.730;9.108;2023-05-29T08:40:18;22.80;82.80
6792;DHT22;3433;48.730;9.108;2023-05-29T08:43:10;23.00;82.40
6792;DHT22;3433;48.730;9.108;2023-05-29T08:46:00;23.00;81.20
6792;DHT22;3433;48.730;9.108;2023-05-29T08:48:48;23.30;81.30
6792;DHT22;3433;48.730;9.108;2023-05-29T08:51:38;23.40;81.30
6792;DHT22;3433;48.730;9.108;2023-05-29T08:54:31;23.30;80.10
6792;DHT22;3433;48.730;9.108;2023-05-29T08:57:20;23.40;81.40
6792;DHT22;3433;48.730;9.108;2023-05-29T09:00:09;23.50;81.70
6792;DHT22;3433;48.730;9.108;2023-05-29T09:02:58;23.60;80.10
6792;DHT22;3433;48.730;9.108;2023-05-29T09:05:46;23.60;79.70
6792;DHT22;3433;48.730;9.108;2023-05-29T09:08:35;23.60;80.90
6792;DHT22;3433;48.730;9.108;2023-05-29T09:11:23;23.80;80.20
6792;DHT22;3433;48.730;9.108;2023-05-29T09:14:32;23.90;79.30
6792;DHT22;3433;48.730;9.108;2023-05-29T09:20:17;23.80;80.30
6792;DHT22;3433;48.730;9.108;2023-05-29T09:23:07;24.00;79.80
6792;DHT22;3433;48.730;9.108;2023-05-29T09:25:54;24.10;81.60
6792;DHT22;3433;48.730;9.108;2023-05-29T09:28:42;24.20;80.50
6792;DHT22;3433;48.730;9.108;2023-05-29T09:31:30;24.30;81.10
6792;DHT22;3433;48.730;9.108;2023-05-29T09:34:17;24.40;79.70
6792;DHT22;3433;48.730;9.108;2023-05-29T09:37:07;24.40;79.90
6792;DHT22;3433;48.730;9.108;2023-05-29T09:39:54;24.30;79.00
6792;DHT22;3433;48.730;9.108;2023-05-29T09:42:42;24.40;79.70
6792;DHT22;3433;48.730;9.108;2023-05-29T09:45:29;24.30;79.10
6792;DHT22;3433;48.730;9.108;2023-05-29T09:48:18;24.20;78.70
6792;DHT22;3433;48.730;9.108;2023-05-29T09:51:19;24.50;79.40
6792;DHT22;3433;48.730;9.108;2023-05-29T09:54:16;24.40;79.00
6792;DHT22;3433;48.730;9.108;2023-05-29T09:57:04;24.50;79.60
6792;DHT22;3433;48.730;9.108;2023-05-29T09:59:52;24.70;78.80
6792;DHT22;3433;48.730;9.108;2023-05-29T10:02:40;24.80;79.40
6792;DHT22;3433;48.730;9.108;2023-05-29T10:05:27;24.90;79.00
6792;DHT22;3433;48.730;9.108;2023-05-29T10:08:15;25.00;79.20
6792;DHT22;3433;48.730;9.108;2023-05-29T10:11:05;25.00;79.10
6792;DHT22;3433;48.730;9.108;2023-05-29T10:13:56;24.80;78.80
6792;DHT22;3433;48.730;9.108;2023-05-29T10:16:46;24.90;80.00
6792;DHT22;3433;48.730;9.108;2023-05-29T10:19:37;25.20;81.10
6792;DHT22;3433;48.730;9.108;2023-05-29T10:22:25;25.00;78.40
6792;DHT22;3433;48.730;9.108;2023-05-29T10:25:13;25.10;79.00
6792;DHT22;3433;48.730;9.108;2023-05-29T10:28:02;25.30;80.80
6792;DHT22;3433;48.730;9.108;2023-05-29T10:30:54;25.30;79.30
6792;DHT22;3433;48.730;9.108;2023-05-29T10:33:52;25.60;79.30
6792;DHT22;3433;48.730;9.108;2023-05-29T10:36:46;25.80;79.50
6792;DHT22;3433;48.730;9.108;2023-05-29T10:39:36;26.00;77.20
6792;DHT22;3433;48.730;9.108;2023-05-29T10:42:45;25.90;77.20
6792;DHT22;3433;48.730;9.108;2023-05-29T10:45:49;26.00;78.00
6792;DHT22;3433;48.730;9.108;2023-05-29T10:48:41;26.20;76.50
6792;DHT22;3433;48.730;9.108;2023-05-29T10:51:28;25.80;73.30
6792;DHT22;3433;48.730;9.108;2023-05-29T10:54:21;25.70;75.30
6792;DHT22;3433;48.730;9.108;2023-05-29T10:57:09;25.80;74.90
6792;DHT22;3433;48.730;9.108;2023-05-29T10:59:59;26.20;76.80
6792;DHT22;3433;48.730;9.108;2023-05-29T11:02:48;26.20;73.60
6792;DHT22;3433;48.730;9.108;2023-05-29T11:05:35;25.90;72.90
6792;DHT22;3433;48.730;9.108;2023-05-29T11:08:43;26.10;73.90
6792;DHT22;3433;48.730;9.108;2023-05-29T11:11:32;26.30;73.80
6792;DHT22;3433;48.730;9.108;2023-05-29T11:14:21;26.50;74.40
6792;DHT22;3433;48.730;9.108;2023-05-29T11:17:08;26.70;74.90
6792;DHT22;3433;48.730;9.108;2023-05-29T11:20:00;26.50;72.20
6792;DHT22;3433;48.730;9.108;2023-05-29T11:23:00;26.60;71.40
6792;DHT22;3433;48.730;9.108;2023-05-29T11:25:48;26.20;72.10
6792;DHT22;3433;48.730;9.108;2023-05-29T11:28:36;26.50;73.30
6792;DHT22;3433;48.730;9.108;2023-05-29T11:31:24;26.60;72.00
6792;DHT22;3433;48.730;9.108;2023-05-29T11:34:14;26.80;72.90
6792;DHT22;3433;48.730;9.108;2023-05-29T11:37:03;26.60;70.00
6792;DHT22;3433;48.730;9.108;2023-05-29T11:39:51;26.50;69.40
6792;DHT22;3433;48.730;9.108;2023-05-29T11:42:43;26.70;72.20
6792;DHT22;3433;48.730;9.108;2023-05-29T11:45:32;26.70;68.70
6792;DHT22;3433;48.730;9.108;2023-05-29T11:48:20;26.60;69.10
6792;DHT22;3433;48.730;9.108;2023-05-29T11:51:11;26.50;69.90
6792;DHT22;3433;48.730;9.108;2023-05-29T11:53:59;26.70;69.00
6792;DHT22;3433;48.730;9.108;2023-05-29T11:56:47;26.90;69.10
6792;DHT22;3433;48.730;9.108;2023-05-29T11:59:34;27.10;70.30
6792;DHT22;3433;48.730;9.108;2023-05-29T12:02:22;27.10;70.30
6792;DHT22;3433;48.730;9.108;2023-05-29T12:05:11;26.80;67.50
6792;DHT22;3433;48.730;9.108;2023-05-29T12:08:00;27.00;69.00
6792;DHT22;3433;48.730;9.108;2023-05-29T12:10:52;27.00;67.00
6792;DHT22;3433;48.730;9.108;2023-05-29T12:13:39;27.00;64.90
6792;DHT22;3433;48.730;9.108;2023-05-29T12:16:27;26.40;66.20
6792;DHT22;3433;48.730;9.108;2023-05-29T12:19:16;26.50;64.50
6792;DHT22;3433;48.730;9.108;2023-05-29T12:22:03;26.40;64.40
6792;DHT22;3433;48.730;9.108;2023-05-29T12:24:51;26.60;66.10
6792;DHT22;3433;48.730;9.108;2023-05-29T12:27:41;26.80;65.50
6792;DHT22;3433;48.730;9.108;2023-05-29T12:30:28;26.80;65.10
6792;DHT22;3433;48.730;9.108;2023-05-29T12:33:29;27.20;65.00
6792;DHT22;3433;48.730;9.108;2023-05-29T12:36:16;27.20;65.00
6792;DHT22;3433;48.730;9.108;2023-05-29T12:39:06;27.00;62.40
6792;DHT22;3433;48.730;9.108;2023-05-29T12:41:54;26.80;62.40
6792;DHT22;3433;48.730;9.108;2023-05-29T12:44:43;26.80;62.00
6792;DHT22;3433;48.730;9.108;2023-05-29T12:47:31;27.00;64.30
6792;DHT22;3433;48.730;9.108;2023-05-29T12:50:25;27.10;62.20
6792;DHT22;3433;48.730;9.108;2023-05-29T12:53:15;26.90;60.90
6792;DHT22;3433;48.730;9.108;2023-05-29T12:56:03;26.30;59.70
6792;DHT22;3433;48.730;9.108;2023-05-29T12:58:50;26.60;61.60
6792;DHT22;3433;48.730;9.108;2023-05-29T13:01:39;26.50;59.90
6792;DHT22;3433;48.730;9.108;2023-05-29T13:04:27;26.40;60.80
6792;DHT22;3433;48.730;9.108;2023-05-29T13:07:14;26.80;63.20
6792;DHT22;3433;48.730;9.108;2023-05-29T13:10:01;27.10;60.00
6792;DHT22;3433;48.730;9.108;2023-05-29T13:12:49;27.20;62.10
6792;DHT22;3433;48.730;9.108;2023-05-29T13:15:39;27.50;63.70
6792;DHT22;3433;48.730;9.108;2023-05-29T13:18:28;27.40;59.30
6792;DHT22;3433;48.730;9.108;2023-05-29T13:21:15;27.20;58.60
6792;DHT22;3433;48.730;9.108;2023-05-29T13:24:03;26.50;56.40
6792;DHT22;3433;48.730;9.108;2023-05-29T13:26:51;26.10;56.40
6792;DHT22;3433;48.730;9.108;2023-05-29T13:29:38;26.50;58.20
6792;DHT22;3433;48.730;9.108;2023-05-29T13:32:26;26.70;57.50
6792;DHT22;3433;48.730;9.108;2023-05-29T13:35:14;26.50;57.00
6792;DHT22;3433;48.730;9.108;2023-05-29T13:38:02;26.50;57.00
6792;DHT22;3433;48.730;9.108;2023-05-29T13:40:49;26.90;57.90
6792;DHT22;3433;48.730;9.108;2023-05-29T13:43:36;27.10;58.70
6792;DHT22;3433;48.730;9.108;2023-05-29T13:46:23;27.10;57.20
6792;DHT22;3433;48.730;9.108;2023-05-29T13:49:12;27.10;57.30
6792;DHT22;3433;48.730;9.108;2023-05-29T13:52:01;26.70;55.80
6792;DHT22;3433;48.730;9.108;2023-05-29T13:54:48;27.00;59.10
6792;DHT22;3433;48.730;9.108;2023-05-29T13:57:36;27.40;59.70
6792;DHT22;3433;48.730;9.108;2023-05-29T14:00:23;27.50;56.90
6792;DHT22;3433;48.730;9.108;2023-05-29T14:03:10;27.70;57.50
6792;DHT22;3433;48.730;9.108;2023-05-29T14:05:57;27.80;57.80
6792;DHT22;3433;48.730;9.108;2023-05-29T14:08:46;28.00;58.70
6792;DHT22;3433;48.730;9.108;2023-05-29T14:11:33;28.00;57.60
6792;DHT22;3433;48.730;9.108;2023-05-29T14:14:23;28.20;58.60
6792;DHT22;3433;48.730;9.108;2023-05-29T14:17:10;28.30;57.80
6792;DHT22;3433;48.730;9.108;2023-05-29T14:19:58;28.50;58.30
6792;DHT22;3433;48.730;9.108;2023-05-29T14:22:48;28.20;54.80
6792;DHT22;3433;48.730;9.108;2023-05-29T14:25:37;27.90;55.00
6792;DHT22;3433;48.730;9.108;2023-05-29T14:28:24;27.50;53.80
6792;DHT22;3433;48.730;9.108;2023-05-29T14:31:11;27.60;55.00
6792;DHT22;3433;48.730;9.108;2023-05-29T14:33:58;27.60;55.30
6792;DHT22;3433;48.730;9.108;2023-05-29T14:36:46;27.50;54.80
6792;DHT22;3433;48.730;9.108;2023-05-29T14:39:33;27.70;55.90
6792;DHT22;3433;48.730;9.108;2023-05-29T14:42:21;27.60;56.10
6792;DHT22;3433;48.730;9.108;2023-05-29T14:45:09;27.60;56.50
6792;DHT22;3433;48.730;9.108;2023-05-29T14:47:56;27.50;56.10
6792;DHT22;3433;48.730;9.108;2023-05-29T14:50:43;27.40;57.50
6792;DHT22;3433;48.730;9.108;2023-05-29T14:53:30;27.60;57.30
6792;DHT22;3433;48.730;9.108;2023-05-29T14:56:18;27.80;56.30
6792;DHT22;3433;48.730;9.108;2023-05-29T14:59:07;27.30;55.40
6792;DHT22;3433;48.730;9.108;2023-05-29T15:01:54;27.60;56.50
6792;DHT22;3433;48.730;9.108;2023-05-29T15:04:42;27.50;56.30
6792;DHT22;3433;48.730;9.108;2023-05-29T15:07:31;27.20;53.90
6792;DHT22;3433;48.730;9.108;2023-05-29T15:10:20;26.50;54.80
6792;DHT22;3433;48.730;9.108;2023-05-29T15:13:07;26.80;56.40
6792;DHT22;3433;48.730;9.108;2023-05-29T15:15:55;27.30;57.30
6792;DHT22;3433;48.730;9.108;2023-05-29T15:18:45;27.30;55.80
6792;DHT22;3433;48.730;9.108;2023-05-29T15:21:32;27.00;55.10
6792;DHT22;3433;48.730;9.108;2023-05-29T15:24:19;26.80;54.70
6792;DHT22;3433;48.730;9.108;2023-05-29T15:27:07;27.00;55.60
6792;DHT22;3433;48.730;9.108;2023-05-29T15:30:08;27.10;55.60
6792;DHT22;3433;48.730;9.108;2023-05-29T15:32:56;26.90;56.60
6792;DHT22;3433;48.730;9.108;2023-05-29T15:35:44;26.90;57.40
6792;DHT22;3433;48.730;9.108;2023-05-29T15:38:32;27.10;58.40
6792;DHT22;3433;48.730;9.108;2023-05-29T15:41:19;27.20;55.30
6792;DHT22;3433;48.730;9.108;2023-05-29T15:44:06;27.00;56.60
6792;DHT22;3433;48.730;9.108;2023-05-29T15:46:54;26.90;57.20
6792;DHT22;3433;48.730;9.108;2023-05-29T15:49:42;27.10;58.60
6792;DHT22;3433;48.730;9.108;2023-05-29T15:52:29;27.10;58.80
6792;DHT22;3433;48.730;9.108;2023-05-29T15:55:17;27.00;57.40
6792;DHT22;3433;48.730;9.108;2023-05-29T15:58:04;27.10;59.80
6792;DHT22;3433;48.730;9.108;2023-05-29T16:00:52;27.20;59.00
6792;DHT22;3433;48.730;9.108;2023-05-29T16:03:39;27.20;59.30
6792;DHT22;3433;48.730;9.108;2023-05-29T16:06:28;27.10;58.90
6792;DHT22;3433;48.730;9.108;2023-05-29T16:09:16;27.30;59.70
6792;DHT22;3433;48.730;9.108;2023-05-29T16:12:04;27.30;59.40
6792;DHT22;3433;48.730;9.108;2023-05-29T16:14:55;27.20;58.90
6792;DHT22;3433;48.730;9.108;2023-05-29T16:17:42;27.30;59.20
6792;DHT22;3433;48.730;9.108;2023-05-29T16:20:29;27.20;58.90
6792;DHT22;3433;48.730;9.108;2023-05-29T16:23:18;27.20;59.70
6792;DHT22;3433;48.730;9.108;2023-05-29T16:26:05;27.20;59.90
6792;DHT22;3433;48.730;9.108;2023-05-29T16:28:53;27.10;59.60
6792;DHT22;3433;48.730;9.108;2023-05-29T16:31:41;26.80;58.60
6792;DHT22;3433;48.730;9.108;2023-05-29T16:34:28;26.80;58.70
6792;DHT22;3433;48.730;9.108;2023-05-29T16:37:16;26.70;59.80
6792;DHT22;3433;48.730;9.108;2023-05-29T16:40:05;26.60;58.40
6792;DHT22;3433;48.730;9.108;2023-05-29T16:42:52;26.60;58.80
6792;DHT22;3433;48.730;9.108;2023-05-29T16:45:40;26.40;59.00
6792;DHT22;3433;48.730;9.108;2023-05-29T16:48:27;26.40;59.60
6792;DHT22;3433;48.730;9.108;2023-05-29T16:51:14;26.20;59.00
6792;DHT22;3433;48.730;9.108;2023-05-29T16:54:01;26.20;59.00
6792;DHT22;3433;48.730;9.108;2023-05-29T16:56:50;26.00;59.60
6792;DHT22;3433;48.730;9.108;2023-05-29T16:59:37;26.10;59.50
6792;DHT22;3433;48.730;9.108;2023-05-29T17:02:25;26.00;60.30
6792;DHT22;3433;48.730;9.108;2023-05-29T17:05:12;25.80;59.00
6792;DHT22;3433;48.730;9.108;2023-05-29T17:08:00;26.00;59.10
6792;DHT22;3433;48.730;9.108;2023-05-29T17:10:47;25.80;59.40
6792;DHT22;3433;48.730;9.108;2023-05-29T17:13:36;25.70;60.70
6792;DHT22;3433;48.730;9.108;2023-05-29T17:16:23;25.60;59.40
6792;DHT22;3433;48.730;9.108;2023-05-29T17:19:10;25.50;59.50
6792;DHT22;3433;48.730;9.108;2023-05-29T17:21:57;25.30;60.20
6792;DHT22;3433;48.730;9.108;2023-05-29T17:24:45;25.20;59.90
6792;DHT22;3433;48.730;9.108;2023-05-29T17:27:32;25.10;60.70
6792;DHT22;3433;48.730;9.108;2023-05-29T17:30:21;25.10;60.50
6792;DHT22;3433;48.730;9.108;2023-05-29T17:33:08;25.00;60.60
6792;DHT22;3433;48.730;9.108;2023-05-29T17:35:55;24.80;60.40
6792;DHT22;3433;48.730;9.108;2023-05-29T17:38:43;24.90;60.40
6792;DHT22;3433;48.730;9.108;2023-05-29T17:41:30;24.80;60.90
6792;DHT22;3433;48.730;9.108;2023-05-29T17:44:17;24.80;61.10
6792;DHT22;3433;48.730;9.108;2023-05-29T17:47:06;24.80;60.90
6792;DHT22;3433;48.730;9.108;2023-05-29T17:49:53;24.70;61.40
6792;DHT22;3433;48.730;9.108;2023-05-29T17:52:41;24.70;61.80
6792;DHT22;3433;48.730;9.108;2023-05-29T17:55:28;24.60;62.20
6792;DHT22;3433;48.730;9.108;2023-05-29T17:58:16;24.50;62.20
6792;DHT22;3433;48.730;9.108;2023-05-29T18:01:03;24.50;62.40
6792;DHT22;3433;48.730;9.108;2023-05-29T18:03:51;24.40;62.50
6792;DHT22;3433;48.730;9.108;2023-05-29T18:06:39;24.30;63.10
6792;DHT22;3433;48.730;9.108;2023-05-29T18:09:26;24.30;63.60
6792;DHT22;3433;48.730;9.108;2023-05-29T18:12:13;24.20;63.90
6792;DHT22;3433;48.730;9.108;2023-05-29T18:15:01;24.20;62.80
6792;DHT22;3433;48.730;9.108;2023-05-29T18:17:48;24.20;63.20
6792;DHT22;3433;48.730;9.108;2023-05-29T18:20:36;24.00;63.10
6792;DHT22;3433;48.730;9.108;2023-05-29T18:23:24;23.90;63.70